Time;durP1;ratioP1;P1;durP2;ratioP2;P2;SDS_P1;SDS_P2;PMS_P1;PMS_P2;Temp;Humidity;BMP_temperature;BMP_pressure;BME280_temperature;BME280_humidity;BME280_pressure;Samples;Min_cycle;Max_cycle;Signal;HPM_P1;HPM_P2
2024/02/20 00:01:49;;;;;;;2.05;1.55;;;;;;;4.20;100.00;95353.97;10503930;28;20050;-78
2024/02/20 00:06:50;;;;;;;8.65;0.32;;;;;;;4.20;100.00;95352.13;10504232;28;20456;-78
2024/02/20 00:11:50;;;;;;;8.25;0.40;;;;;;;4.38;100.00;95353.19;10504081;28;20143;-77
2024/02/20 00:16:52;;;;;;;9.13;0.40;;;;;;;4.40;100.00;95353.81;10503162;28;20404;-77
2024/02/20 00:21:53;;;;;;;3.38;0.00;;;;;;;4.41;100.00;95360.75;10484295;28;20596;-78
2024/02/20 00:26:53;;;;;;;11.77;10.82;;;;;;;4.43;100.00;95348.03;10502617;28;20176;-76
2024/02/20 00:31:53;;;;;;;2.80;1.50;;;;;;;4.50;100.00;95346.13;10498843;28;20463;-76
2024/02/20 00:36:54;;;;;;;1.87;1.80;;;;;;;4.69;100.00;95344.31;10503124;28;20273;-78
2024/02/20 00:41:55;;;;;;;3.10;0.20;;;;;;;4.78;100.00;95334.19;10488656;28;20270;-77
2024/02/20 00:46:55;;;;;;;4.82;4.55;;;;;;;4.72;100.00;95329.75;10505099;28;20032;-78
2024/02/20 00:51:56;;;;;;;1.23;1.23;;;;;;;4.68;100.00;95326.72;10510396;28;20757;-78
2024/02/20 00:56:56;;;;;;;1.80;1.75;;;;;;;4.68;100.00;95325.91;10497392;28;20482;-76
2024/02/20 01:01:57;;;;;;;6.25;5.90;;;;;;;4.71;100.00;95312.13;10511756;28;20032;-77
2024/02/20 01:06:57;;;;;;;5.37;4.90;;;;;;;4.89;100.00;95308.66;10510793;28;20031;-77
2024/02/20 01:11:57;;;;;;;4.17;3.07;;;;;;;4.99;100.00;95305.47;10510324;28;20792;-78
2024/02/20 01:16:58;;;;;;;1.40;1.40;;;;;;;5.10;100.00;95300.19;10491225;28;20277;-77
2024/02/20 01:21:58;;;;;;;3.55;0.32;;;;;;;5.13;100.00;95296.25;10509839;28;20290;-78
2024/02/20 01:26:58;;;;;;;9.77;0.40;;;;;;;4.95;100.00;95297.09;10502737;28;20032;-78
2024/02/20 01:31:59;;;;;;;5.63;5.23;;;;;;;4.95;100.00;95287.28;10501337;28;20071;-76
2024/02/20 01:36:59;;;;;;;55.53;15.32;;;;;;;5.01;100.00;95285.56;10491657;28;20795;-76
2024/02/20 01:42:01;;;;;;;13.10;12.03;;;;;;;4.93;100.00;95281.34;10496004;28;20031;-77
2024/02/20 01:47:02;;;;;;;1.17;1.17;;;;;;;4.87;100.00;95276.09;10490190;28;20278;-77
2024/02/20 01:52:06;;;;;;;4.38;0.03;;;;;;;4.82;100.00;95276.78;10508815;28;20434;-77
2024/02/20 01:57:07;;;;;;;2.95;2.75;;;;;;;4.61;100.00;95276.19;10491130;28;20135;-77
2024/02/20 02:02:07;;;;;;;0.00;0.00;;;;;;;4.49;100.00;95277.94;10508676;28;20042;-76
2024/02/20 02:07:08;;;;;;;0.00;0.00;;;;;;;4.57;100.00;95268.88;10499418;28;20024;-77
2024/02/20 02:12:08;;;;;;;0.00;0.00;;;;;;;4.75;100.00;95262.72;10490434;28;20031;-76
2024/02/20 02:17:08;;;;;;;0.00;0.00;;;;;;;4.64;100.00;95258.97;10489524;28;20039;-77
2024/02/20 02:22:09;;;;;;;0.00;0.00;;;;;;;4.52;100.00;95264.22;10503293;28;20398;-77
2024/02/20 02:27:09;;;;;;;0.00;0.00;;;;;;;4.65;100.00;95254.44;10508236;28;20067;-77
2024/02/20 02:32:10;;;;;;;0.00;0.00;;;;;;;4.48;100.00;95263.03;10505243;28;20019;-77
2024/02/20 02:37:11;;;;;;;0.00;0.00;;;;;;;4.50;100.00;95255.63;10506793;28;20074;-77
2024/02/20 02:42:11;;;;;;;0.00;0.00;;;;;;;4.55;100.00;95254.97;10506853;28;20289;-78
2024/02/20 02:47:11;;;;;;;0.00;0.00;;;;;;;4.44;100.00;95267.19;10493094;28;20068;-77
2024/02/20 02:52:12;;;;;;;0.00;0.00;;;;;;;4.50;100.00;95265.47;10506427;28;20055;-76
2024/02/20 02:57:12;;;;;;;0.00;0.00;;;;;;;4.40;100.00;95266.00;10507093;28;20040;-78
2024/02/20 03:02:13;;;;;;;0.00;0.00;;;;;;;4.59;100.00;95264.13;10505795;28;20032;-78
2024/02/20 03:07:13;;;;;;;0.00;0.00;;;;;;;4.48;100.00;95255.06;10506037;28;20032;-76
2024/02/20 03:12:13;;;;;;;0.00;0.00;;;;;;;4.52;100.00;95261.56;10491851;28;20081;-77
2024/02/20 03:17:14;;;;;;;0.00;0.00;;;;;;;4.50;100.00;95263.63;10505613;28;20272;-78
2024/02/20 03:22:15;;;;;;;0.00;0.00;;;;;;;4.42;100.00;95274.56;10492424;28;20031;-77
2024/02/20 03:27:16;;;;;;;0.00;0.00;;;;;;;4.41;100.00;95279.06;10505169;28;20443;-78
2024/02/20 03:32:16;;;;;;;0.00;0.00;;;;;;;4.37;100.00;95291.19;10502907;28;20035;-77
2024/02/20 03:37:17;;;;;;;0.00;0.00;;;;;;;4.58;100.00;95284.63;10504568;28;20035;-75
2024/02/20 03:42:17;;;;;;;0.20;0.13;;;;;;;4.47;100.00;95298.66;10505239;28;20128;-77
2024/02/20 03:47:18;;;;;;;0.05;0.05;;;;;;;4.43;100.00;95298.28;10506469;28;20036;-77
2024/02/20 03:52:18;;;;;;;0.00;0.00;;;;;;;4.50;100.00;95300.09;10506348;28;20155;-77
2024/02/20 03:57:18;;;;;;;0.00;0.00;;;;;;;4.50;100.00;95300.88;10506278;28;20080;-78
2024/02/20 04:02:19;;;;;;;0.00;0.00;;;;;;;4.36;100.00;95305.53;10505710;28;20276;-79
2024/02/20 04:07:20;;;;;;;0.00;0.00;;;;;;;4.52;100.00;95301.50;10506896;28;20036;-76
2024/02/20 04:12:20;;;;;;;0.00;0.00;;;;;;;4.60;100.00;95308.34;10504977;28;20089;-77
2024/02/20 04:17:20;;;;;;;0.10;0.10;;;;;;;4.53;100.00;95310.28;10502779;28;20266;-77
2024/02/20 04:22:21;;;;;;;0.00;0.00;;;;;;;4.69;100.00;95300.88;10488531;28;21062;-78
2024/02/20 04:27:21;;;;;;;0.00;0.00;;;;;;;4.72;100.00;95297.81;10500967;28;20059;-78
2024/02/20 04:32:22;;;;;;;0.00;0.00;;;;;;;4.77;100.00;95295.25;10498466;28;20028;-77
2024/02/20 04:37:22;;;;;;;0.00;0.00;;;;;;;4.66;100.00;95291.50;10501045;28;20301;-77
2024/02/20 04:42:23;;;;;;;0.00;0.00;;;;;;;4.65;100.00;95283.72;10500753;28;20032;-77
2024/02/20 04:47:24;;;;;;;0.00;0.00;;;;;;;4.72;100.00;95289.81;10500426;28;20348;-77
2024/02/20 04:52:25;;;;;;;0.00;0.00;;;;;;;4.70;100.00;95279.38;10500048;28;20055;-77
2024/02/20 04:57:27;;;;;;;0.57;0.03;;;;;;;4.68;100.00;95284.09;10463349;28;20325;-77
2024/02/20 05:02:27;;;;;;;0.00;0.00;;;;;;;4.78;100.00;95281.72;10463610;28;20515;-77
2024/02/20 05:07:27;;;;;;;0.00;0.00;;;;;;;4.96;100.00;95293.41;10462702;28;20324;-76
2024/02/20 05:12:28;;;;;;;0.00;0.00;;;;;;;5.07;100.00;95291.84;10460514;28;20098;-79
2024/02/20 05:17:28;;;;;;;0.00;0.00;;;;;;;5.18;100.00;95300.91;10459294;28;20032;-77
2024/02/20 05:22:29;;;;;;;6.03;0.13;;;;;;;5.21;100.00;95301.28;10442055;28;20036;-77
2024/02/20 05:27:29;;;;;;;0.00;0.00;;;;;;;5.26;100.00;95303.28;10460742;28;20456;-77
2024/02/20 05:32:31;;;;;;;0.00;0.00;;;;;;;5.29;100.00;95303.66;10449126;28;20439;-77
2024/02/20 05:37:31;;;;;;;0.00;0.00;;;;;;;5.34;100.00;95296.81;10448619;28;21024;-78
2024/02/20 05:42:32;;;;;;;0.00;0.00;;;;;;;5.33;100.00;95304.03;10467283;28;20044;-78
2024/02/20 05:47:32;;;;;;;0.05;0.00;;;;;;;5.34;100.00;95316.28;10466747;28;20785;-79
2024/02/20 05:52:33;;;;;;;0.00;0.00;;;;;;;5.42;100.00;95317.84;10465114;28;20501;-77
2024/02/20 05:57:33;;;;;;;0.00;0.00;;;;;;;5.41;100.00;95324.19;10449446;28;20507;-77
2024/02/20 06:02:34;;;;;;;0.00;0.00;;;;;;;5.58;100.00;95327.03;10448463;28;20115;-79
2024/02/20 06:07:34;;;;;;;0.00;0.00;;;;;;;5.66;100.00;95337.38;10465962;28;20371;-77
2024/02/20 06:12:35;;;;;;;0.00;0.00;;;;;;;5.78;100.00;95335.56;10463709;28;20048;-77
2024/02/20 06:17:35;;;;;;;0.00;0.00;;;;;;;5.77;100.00;95341.94;10445338;28;20642;-78
2024/02/20 06:22:35;;;;;;;0.00;0.00;;;;;;;5.89;100.00;95346.47;10463020;28;20428;-78
2024/02/20 06:27:38;;;;;;;0.85;0.00;;;;;;;5.91;100.00;95352.41;10463213;28;20031;-78
2024/02/20 06:32:39;;;;;;;0.00;0.00;;;;;;;6.08;100.00;95358.75;10447147;28;20028;-78
2024/02/20 06:37:40;;;;;;;0.00;0.00;;;;;;;6.03;100.00;95363.97;10447085;28;20043;-78
2024/02/20 06:42:40;;;;;;;0.00;0.00;;;;;;;6.14;100.00;95376.53;10447463;28;20064;-78
2024/02/20 06:47:42;;;;;;;0.00;0.00;;;;;;;6.26;100.00;95376.53;10462753;28;20785;-78
2024/02/20 06:52:46;;;;;;;0.00;0.00;;;;;;;6.21;100.00;95376.41;10463684;28;20079;-77
2024/02/20 06:57:46;;;;;;;0.00;0.00;;;;;;;6.18;100.00;95386.72;10450270;28;20046;-77
2024/02/20 07:02:49;;;;;;;0.00;0.00;;;;;;;6.44;100.00;95377.50;10464192;28;20394;-78
2024/02/20 07:07:50;;;;;;;0.00;0.00;;;;;;;6.46;100.00;95383.41;10445064;28;20031;-78
2024/02/20 07:12:50;;;;;;;0.00;0.00;;;;;;;6.61;100.00;95378.41;10464458;28;20024;-78
2024/02/20 07:17:51;;;;;;;0.00;0.00;;;;;;;6.77;100.00;95381.47;10445135;28;20060;-79
2024/02/20 07:22:51;;;;;;;0.00;0.00;;;;;;;6.67;100.00;95372.16;10463766;28;20040;-78
2024/02/20 07:27:52;;;;;;;0.00;0.00;;;;;;;6.90;100.00;95367.84;10462613;28;20410;-78
2024/02/20 07:32:52;;;;;;;0.00;0.00;;;;;;;7.01;100.00;95375.03;10462441;28;20040;-78
2024/02/20 07:37:53;;;;;;;0.00;0.00;;;;;;;6.98;100.00;95372.03;10462422;28;20067;-78
2024/02/20 07:42:53;;;;;;;0.00;0.00;;;;;;;7.13;100.00;95368.84;10444350;28;20294;-77
2024/02/20 07:47:53;;;;;;;0.00;0.00;;;;;;;7.23;100.00;95368.25;10462786;28;20614;-78
2024/02/20 07:52:54;;;;;;;0.98;0.98;;;;;;;7.20;100.00;95364.22;10461925;28;20297;-77
2024/02/20 07:57:54;;;;;;;0.00;0.00;;;;;;;7.33;100.00;95361.25;10462142;28;20541;-77
2024/02/20 08:02:54;;;;;;;0.00;0.00;;;;;;;7.43;100.00;95363.31;10461456;28;20275;-77
2024/02/20 08:07:55;;;;;;;0.00;0.00;;;;;;;7.03;100.00;95366.78;10444229;28;20131;-78
2024/02/20 08:12:55;;;;;;;0.00;0.00;;;;;;;7.16;100.00;95360.38;10461912;28;20516;-77
2024/02/20 08:17:55;;;;;;;0.00;0.00;;;;;;;7.42;100.00;95356.34;10461909;28;20406;-77
2024/02/20 08:22:56;;;;;;;2.43;0.17;;;;;;;7.41;100.00;95367.28;10461486;28;20515;-78
2024/02/20 08:27:56;;;;;;;0.00;0.00;;;;;;;7.51;100.00;95375.50;10461618;28;20269;-80
2024/02/20 08:32:56;;;;;;;0.00;0.00;;;;;;;7.58;100.00;95373.50;10461415;28;20032;-76
2024/02/20 08:37:59;;;;;;;0.00;0.00;;;;;;;7.60;100.00;95371.38;10443257;28;20039;-78
2024/02/20 08:42:59;;;;;;;0.00;0.00;;;;;;;7.66;100.00;95375.81;10468270;28;20571;-78
2024/02/20 08:48:01;;;;;;;0.00;0.00;;;;;;;7.76;100.00;95374.34;10461249;28;20025;-78
2024/02/20 08:53:07;;;;;;;0.00;0.00;;;;;;;7.98;100.00;95369.13;10460641;28;20369;-78
2024/02/20 08:58:07;;;;;;;0.00;0.00;;;;;;;7.58;100.00;95375.38;10442715;28;20032;-78
2024/02/20 09:03:09;;;;;;;0.00;0.00;;;;;;;7.81;100.00;95377.94;10458707;28;20089;-78
2024/02/20 09:08:10;;;;;;;0.00;0.00;;;;;;;7.77;100.00;95370.63;10429345;28;20073;-78
2024/02/20 09:13:10;;;;;;;0.30;0.00;;;;;;;7.61;100.00;95362.31;10468717;28;20024;-77
2024/02/20 09:18:10;;;;;;;0.00;0.00;;;;;;;7.72;100.00;95354.47;10468619;28;20028;-77
2024/02/20 09:23:11;;;;;;;0.00;0.00;;;;;;;8.60;100.00;95354.91;10467914;28;20031;-77
2024/02/20 09:28:11;;;;;;;0.00;0.00;;;;;;;9.11;100.00;95354.00;10467981;28;20083;-77
2024/02/20 09:33:16;;;;;;;0.00;0.00;;;;;;;9.58;100.00;95351.63;10449366;28;20491;-76
2024/02/20 09:38:17;;;;;;;0.00;0.00;;;;;;;10.47;100.00;95351.44;10467804;28;20443;-78
2024/02/20 09:43:18;;;;;;;4.25;0.03;;;;;;;10.59;98.25;95353.91;10466940;28;20055;-79
2024/02/20 09:48:18;;;;;;;0.03;0.00;;;;;;;11.15;93.59;95347.28;10467534;28;20027;-78
2024/02/20 09:53:20;;;;;;;0.00;0.00;;;;;;;10.67;94.71;95345.38;10466538;28;20055;-78
2024/02/20 09:58:21;;;;;;;0.00;0.00;;;;;;;10.97;95.36;95340.44;10466820;28;20090;-78
2024/02/20 10:03:24;;;;;;;0.22;0.00;;;;;;;11.09;95.30;95333.81;10467342;28;20028;-77
2024/02/20 10:08:27;;;;;;;0.00;0.00;;;;;;;11.19;90.50;95333.06;10467201;28;20028;-79
2024/02/20 10:13:27;;;;;;;0.00;0.00;;;;;;;10.95;87.94;95329.94;10471831;28;20422;-77
2024/02/20 10:18:28;;;;;;;0.00;0.00;;;;;;;10.85;92.54;95324.53;10465293;28;20037;-76
2024/02/20 10:23:28;;;;;;;0.00;0.00;;;;;;;10.74;88.49;95318.28;10465898;28;20097;-77
2024/02/20 10:28:30;;;;;;;0.00;0.00;;;;;;;11.95;79.06;95299.38;10465901;28;20027;-78
2024/02/20 10:33:32;;;;;;;0.00;0.00;;;;;;;13.46;65.33;95308.88;10465875;28;20055;-77
2024/02/20 10:38:32;;;;;;;0.00;0.00;;;;;;;15.04;53.35;95294.44;10465160;28;20241;-77
2024/02/20 10:43:33;;;;;;;0.00;0.00;;;;;;;16.17;47.15;95276.75;10464018;28;20017;-78
2024/02/20 10:48:34;;;;;;;0.00;0.00;;;;;;;16.68;45.94;95271.56;10464282;28;20474;-78
2024/02/20 10:53:36;;;;;;;0.00;0.00;;;;;;;16.17;42.42;95267.78;10464242;28;20083;-77
2024/02/20 10:58:40;;;;;;;0.00;0.00;;;;;;;14.91;47.09;95266.16;10463476;28;20028;-78
2024/02/20 11:03:41;;;;;;;0.00;0.00;;;;;;;13.54;47.12;95267.00;10463537;28;20081;-78
2024/02/20 11:08:43;;;;;;;0.00;0.00;;;;;;;12.60;51.45;95265.66;10463297;28;20024;-78
2024/02/20 11:13:44;;;;;;;0.00;0.00;;;;;;;12.38;49.27;95264.09;10463881;28;20458;-79
2024/02/20 11:18:52;;;;;;;0.00;0.00;;;;;;;12.06;48.95;95261.69;10464047;28;20032;-77
2024/02/20 11:23:53;;;;;;;0.00;0.00;;;;;;;11.76;52.06;95252.44;10462513;28;20407;-78
2024/02/20 11:28:57;;;;;;;0.00;0.00;;;;;;;11.61;51.54;95258.66;10463620;28;20099;-78
2024/02/20 11:33:59;;;;;;;0.00;0.00;;;;;;;11.54;52.05;95252.69;10462700;28;20058;-77
2024/02/20 11:39:06;;;;;;;0.00;0.00;;;;;;;10.80;54.42;95251.91;10462304;28;20020;-79
2024/02/20 11:44:06;;;;;;;0.00;0.00;;;;;;;10.93;56.06;95252.22;10444115;28;20032;-77
2024/02/20 11:49:06;;;;;;;0.00;0.00;;;;;;;10.74;56.71;95256.44;10462747;28;20024;-77
2024/02/20 11:54:07;;;;;;;0.00;0.00;;;;;;;10.71;52.98;95248.91;10462164;28;20290;-77
2024/02/20 11:59:08;;;;;;;0.00;0.00;;;;;;;10.87;54.64;95241.72;10462129;28;20305;-79
2024/02/20 12:04:11;;;;;;;0.00;0.00;;;;;;;10.84;52.94;95234.16;10462237;28;20294;-77
2024/02/20 12:09:17;;;;;;;0.00;0.00;;;;;;;10.89;52.39;95237.69;10461657;28;20024;-78
2024/02/20 12:14:18;;;;;;;0.00;0.00;;;;;;;10.77;54.13;95240.59;10461667;28;20034;-78
2024/02/20 12:19:22;;;;;;;0.00;0.00;;;;;;;10.71;55.23;95238.94;10461784;28;20031;-77
2024/02/20 12:24:22;;;;;;;0.00;0.00;;;;;;;10.83;55.96;95238.75;10443485;28;20039;-78
2024/02/20 12:29:22;;;;;;;0.00;0.00;;;;;;;10.49;57.25;95241.78;10461779;28;20035;-78
2024/02/20 12:34:23;;;;;;;0.00;0.00;;;;;;;10.17;56.92;95241.81;10454873;28;20032;-77
2024/02/20 12:39:25;;;;;;;0.00;0.00;;;;;;;10.00;58.24;95228.53;10444663;28;20275;-78
2024/02/20 12:44:25;;;;;;;0.00;0.00;;;;;;;10.23;57.39;95230.84;10466660;28;20410;-78
2024/02/20 12:49:25;;;;;;;0.00;0.00;;;;;;;10.36;59.34;95218.88;10475075;28;20031;-77
2024/02/20 12:54:26;;;;;;;0.00;0.00;;;;;;;10.48;60.23;95223.22;10451123;28;20088;-77
2024/02/20 12:59:30;;;;;;;0.00;0.00;;;;;;;10.67;59.03;95216.34;10468777;28;20491;-77
2024/02/20 13:04:30;;;;;;;0.00;0.00;;;;;;;10.72;58.42;95212.88;10468865;28;20457;-78
2024/02/20 13:09:30;;;;;;;0.00;0.00;;;;;;;10.85;57.56;95208.91;10468083;28;20035;-77
2024/02/20 13:14:31;;;;;;;0.00;0.00;;;;;;;10.88;59.81;95209.16;10468806;28;20020;-78
2024/02/20 13:19:32;;;;;;;0.00;0.00;;;;;;;10.66;58.74;95208.53;10468510;28;20051;-79
2024/02/20 13:24:32;;;;;;;0.00;0.00;;;;;;;10.57;61.52;95208.25;10468218;28;20328;-77
2024/02/20 13:29:33;;;;;;;0.00;0.00;;;;;;;10.60;59.87;95200.47;10467657;28;20019;-77
2024/02/20 13:34:33;;;;;;;0.00;0.00;;;;;;;10.71;57.90;95203.19;10468168;28;20419;-77
2024/02/20 13:39:33;;;;;;;0.00;0.00;;;;;;;10.98;57.24;95210.28;10466757;28;20873;-77
2024/02/20 13:44:34;;;;;;;0.00;0.00;;;;;;;11.14;57.07;95203.09;10449561;28;20036;-78
2024/02/20 13:49:36;;;;;;;0.00;0.00;;;;;;;10.89;59.18;95202.72;10467828;28;20035;-79
2024/02/20 13:54:36;;;;;;;0.00;0.00;;;;;;;11.13;57.71;95209.53;10466895;28;20918;-78
2024/02/20 13:59:37;;;;;;;0.00;0.00;;;;;;;11.01;61.30;95207.91;10466637;28;20032;-79
2024/02/20 14:04:37;;;;;;;0.00;0.00;;;;;;;10.97;61.59;95201.44;10466790;28;20085;-78
2024/02/20 14:09:38;;;;;;;0.00;0.00;;;;;;;10.89;61.62;95210.00;10447991;28;20463;-77
2024/02/20 14:14:38;;;;;;;0.00;0.00;;;;;;;10.84;61.96;95204.59;10466172;28;20286;-77
2024/02/20 14:19:40;;;;;;;0.00;0.00;;;;;;;10.87;62.74;95209.44;10465339;28;20052;-78
2024/02/20 14:24:41;;;;;;;0.00;0.00;;;;;;;10.72;62.28;95210.19;10465303;28;20039;-77
2024/02/20 14:29:41;;;;;;;0.00;0.00;;;;;;;10.71;64.55;95208.56;10465769;28;20836;-77
2024/02/20 14:34:42;;;;;;;0.00;0.00;;;;;;;10.57;65.39;95208.25;10465759;28;20062;-77
2024/02/20 14:39:43;;;;;;;0.00;0.00;;;;;;;10.26;67.85;95213.41;10465142;28;20294;-78
2024/02/20 14:44:43;;;;;;;0.00;0.00;;;;;;;9.79;72.44;95230.25;10457163;28;20433;-78
2024/02/20 14:49:44;;;;;;;0.00;0.00;;;;;;;9.58;73.14;95214.75;10445170;28;20032;-79
2024/02/20 14:54:45;;;;;;;0.00;0.00;;;;;;;9.41;78.62;95224.81;10428335;28;20082;-77
2024/02/20 14:59:46;;;;;;;0.00;0.00;;;;;;;9.80;75.36;95218.47;10449407;28;20488;-77
2024/02/20 15:04:46;;;;;;;0.00;0.00;;;;;;;9.86;74.30;95212.06;10445906;28;20037;-77
2024/02/20 15:09:48;;;;;;;0.00;0.00;;;;;;;9.90;76.39;95223.91;10442945;28;20840;-78
2024/02/20 15:14:49;;;;;;;0.00;0.00;;;;;;;9.67;73.51;95222.34;10445795;28;20025;-76
2024/02/20 15:19:50;;;;;;;0.00;0.00;;;;;;;9.60;74.08;95219.06;10442532;28;20036;-79
2024/02/20 15:24:51;;;;;;;0.00;0.00;;;;;;;9.56;78.87;95221.47;10440756;28;20036;-78
2024/02/20 15:29:53;;;;;;;0.00;0.00;;;;;;;9.65;77.73;95221.81;10442000;28;20024;-76
2024/02/20 15:34:53;;;;;;;0.00;0.00;;;;;;;9.63;78.66;95229.28;10444696;28;20353;-76
2024/02/20 15:39:54;;;;;;;0.00;0.00;;;;;;;9.47;74.78;95228.34;10443742;28;20048;-77
2024/02/20 15:44:54;;;;;;;0.00;0.00;;;;;;;9.42;80.16;95231.81;10449628;28;20795;-77
2024/02/20 15:49:55;;;;;;;0.00;0.00;;;;;;;9.45;80.80;95231.28;10448707;28;20090;-76
2024/02/20 15:54:55;;;;;;;0.00;0.00;;;;;;;9.43;79.40;95230.72;10441477;28;20089;-78
2024/02/20 15:59:55;;;;;;;0.00;0.00;;;;;;;9.39;78.61;95243.03;10441844;28;20765;-78
2024/02/20 16:04:57;;;;;;;0.00;0.00;;;;;;;9.24;78.21;95247.16;10438293;28;20032;-78
2024/02/20 16:09:58;;;;;;;0.00;0.00;;;;;;;9.32;79.14;95247.78;10441186;28;20115;-77
2024/02/20 16:14:58;;;;;;;0.00;0.00;;;;;;;9.12;81.79;95259.09;10440028;28;20051;-77
2024/02/20 16:19:59;;;;;;;0.00;0.00;;;;;;;9.15;86.26;95262.06;10439417;28;20338;-77
2024/02/20 16:24:59;;;;;;;0.00;0.00;;;;;;;8.96;97.94;95263.47;10423579;28;20066;-77
2024/02/20 16:30:00;;;;;;;0.00;0.00;;;;;;;8.91;100.00;95258.06;10442840;28;20463;-77
2024/02/20 16:35:00;;;;;;;0.00;0.00;;;;;;;8.86;100.00;95272.19;10440951;28;20681;-77
2024/02/20 16:40:01;;;;;;;0.00;0.00;;;;;;;8.48;100.00;95268.47;10441926;28;20033;-78
2024/02/20 16:45:02;;;;;;;0.00;0.00;;;;;;;8.39;100.00;95281.44;10443824;28;20028;-76
2024/02/20 16:50:03;;;;;;;0.80;0.00;;;;;;;7.69;100.00;95283.56;10441324;28;20117;-78
2024/02/20 16:55:04;;;;;;;0.32;0.00;;;;;;;7.23;100.00;95286.19;10432503;28;20056;-76
2024/02/20 17:00:05;;;;;;;0.00;0.00;;;;;;;7.34;100.00;95292.56;10434160;28;20040;-76
2024/02/20 17:05:17;;;;;;;0.00;0.00;;;;;;;7.45;100.00;95299.72;10439680;28;20383;-76
2024/02/20 17:10:17;;;;;;;0.00;0.00;;;;;;;7.69;100.00;95307.63;10439342;28;20414;-74
2024/02/20 17:15:17;;;;;;;0.00;0.00;;;;;;;7.76;100.00;95305.63;10435089;28;20040;-77
2024/02/20 17:20:18;;;;;;;0.00;0.00;;;;;;;7.78;100.00;95306.16;10433692;28;20028;-76
2024/02/20 17:25:20;;;;;;;0.00;0.00;;;;;;;7.33;100.00;95321.13;10435484;28;20052;-77
2024/02/20 17:30:21;;;;;;;0.00;0.00;;;;;;;7.16;100.00;95328.31;10444335;28;20030;-75
2024/02/20 17:35:21;;;;;;;0.00;0.00;;;;;;;6.74;100.00;95331.16;10452217;28;20477;-78
2024/02/20 17:40:22;;;;;;;0.00;0.00;;;;;;;6.71;100.00;95342.31;10454230;28;20032;-78
2024/02/20 17:45:22;;;;;;;1.45;0.10;;;;;;;6.62;100.00;95334.63;10450050;28;20025;-78
2024/02/20 17:50:23;;;;;;;0.45;0.00;;;;;;;6.50;100.00;95340.00;10442037;28;20043;-77
2024/02/20 17:55:23;;;;;;;1.55;0.00;;;;;;;6.30;100.00;95340.31;10410011;28;1099040;-78
2024/02/20 18:00:23;;;;;;;0.00;0.00;;;;;;;6.28;100.00;95345.09;10443032;28;20036;-78
2024/02/20 18:05:24;;;;;;;0.00;0.00;;;;;;;6.53;100.00;95346.75;10442746;28;20074;-77
2024/02/20 18:10:24;;;;;;;0.00;0.00;;;;;;;6.60;100.00;95344.75;10443611;28;20067;-78
2024/02/20 18:15:25;;;;;;;0.00;0.00;;;;;;;6.49;100.00;95350.91;10451538;28;20380;-78
2024/02/20 18:20:25;;;;;;;0.00;0.00;;;;;;;6.20;100.00;95350.75;10447357;28;20460;-79
2024/02/20 18:25:25;;;;;;;0.00;0.00;;;;;;;6.17;100.00;95345.91;10449438;28;20044;-79
2024/02/20 18:30:26;;;;;;;0.00;0.00;;;;;;;6.05;100.00;95347.72;10459835;28;20024;-79
2024/02/20 18:35:26;;;;;;;0.80;0.00;;;;;;;5.87;100.00;95354.72;10460463;28;20519;-79
2024/02/20 18:40:27;;;;;;;0.00;0.00;;;;;;;5.87;100.00;95360.06;10431246;28;20471;-81
2024/02/20 18:45:28;;;;;;;0.00;0.00;;;;;;;6.05;100.00;95363.75;10446622;28;20028;-75
2024/02/20 18:50:29;;;;;;;0.00;0.00;;;;;;;5.97;100.00;95363.03;10450502;28;20036;-79
2024/02/20 18:55:30;;;;;;;0.00;0.00;;;;;;;6.16;100.00;95366.41;10458931;28;20044;-81
2024/02/20 19:00:34;;;;;;;2.55;0.05;;;;;;;5.79;100.00;95366.53;10435532;28;20024;-81
2024/02/20 19:05:34;;;;;;;0.20;0.00;;;;;;;5.78;100.00;95367.56;10433912;28;20104;-78
2024/02/20 19:10:36;;;;;;;0.00;0.00;;;;;;;5.89;100.00;95379.31;10459100;28;20020;-78
2024/02/20 19:15:36;;;;;;;0.00;0.00;;;;;;;5.92;100.00;95376.19;10454144;28;20411;-81
2024/02/20 19:20:37;;;;;;;0.00;0.00;;;;;;;6.07;100.00;95383.00;10467412;28;20039;-80
2024/02/20 19:25:41;;;;;;;0.50;0.00;;;;;;;6.10;100.00;95380.69;10466239;28;20269;-79
2024/02/20 19:30:48;;;;;;;1.85;0.10;;;;;;;6.19;100.00;95386.50;10463646;28;20808;-80
2024/02/20 19:35:49;;;;;;;0.00;0.00;;;;;;;6.21;100.00;95375.59;10441364;28;20036;-80
2024/02/20 19:40:50;;;;;;;0.00;0.00;;;;;;;6.48;100.00;95390.13;10461177;28;20679;-77
2024/02/20 19:45:50;;;;;;;0.00;0.00;;;;;;;6.46;100.00;95384.22;10455204;28;20032;-78
2024/02/20 19:50:51;;;;;;;0.00;0.00;;;;;;;6.46;100.00;95388.75;10439230;28;20137;-77
2024/02/20 19:55:51;;;;;;;0.00;0.00;;;;;;;6.65;100.00;95394.78;10458214;28;20039;-77
2024/02/20 20:00:51;;;;;;;0.00;0.00;;;;;;;6.66;100.00;95396.44;10458251;28;20667;-78
2024/02/20 20:05:52;;;;;;;0.00;0.00;;;;;;;6.60;100.00;95406.19;10459966;28;20503;-78
2024/02/20 20:10:52;;;;;;;0.00;0.00;;;;;;;6.58;100.00;95399.44;10441876;28;20467;-77
2024/02/20 20:15:53;;;;;;;0.00;0.00;;;;;;;6.62;100.00;95405.94;10459882;28;20332;-77
2024/02/20 20:20:53;;;;;;;0.00;0.00;;;;;;;6.74;100.00;95403.28;10459012;28;20056;-78
2024/02/20 20:25:54;;;;;;;0.00;0.00;;;;;;;6.72;100.00;95416.06;10459692;28;20024;-76
2024/02/20 20:30:55;;;;;;;0.00;0.00;;;;;;;6.70;100.00;95412.78;10460226;28;20517;-76
2024/02/20 20:35:55;;;;;;;0.00;0.00;;;;;;;6.59;100.00;95404.56;10441500;28;20042;-78
2024/02/20 20:40:56;;;;;;;0.00;0.00;;;;;;;6.53;100.00;95410.84;10460287;28;20090;-79
2024/02/20 20:45:56;;;;;;;0.00;0.00;;;;;;;6.47;100.00;95409.91;10459796;28;20051;-77
2024/02/20 20:50:59;;;;;;;0.00;0.00;;;;;;;6.46;100.00;95407.44;10465079;28;20044;-79
2024/02/20 20:56:00;;;;;;;0.00;0.00;;;;;;;6.42;100.00;95408.94;10463205;28;20376;-75
2024/02/20 21:01:00;;;;;;;0.00;0.00;;;;;;;6.36;100.00;95402.66;10458762;28;20024;-76
2024/02/20 21:06:01;;;;;;;0.00;0.00;;;;;;;6.34;100.00;95410.09;10464547;28;20611;-76
2024/02/20 21:11:01;;;;;;;0.00;0.00;;;;;;;6.28;100.00;95405.66;10469572;28;20267;-77
2024/02/20 21:16:01;;;;;;;0.00;0.00;;;;;;;6.19;100.00;95410.53;10467576;28;20360;-78
2024/02/20 21:21:06;;;;;;;0.00;0.00;;;;;;;6.01;100.00;95416.72;10470014;28;20376;-80
2024/02/20 21:26:08;;;;;;;0.00;0.00;;;;;;;5.76;100.00;95415.00;10464161;28;20545;-80
2024/02/20 21:31:09;;;;;;;0.00;0.00;;;;;;;5.61;100.00;95412.72;10467972;28;20043;-78
2024/02/20 21:36:09;;;;;;;0.00;0.00;;;;;;;5.50;100.00;95418.81;10466106;28;20037;-78
2024/02/20 21:41:10;;;;;;;0.00;0.00;;;;;;;5.54;100.00;95425.34;10459353;28;20483;-81
2024/02/20 21:46:22;;;;;;;0.10;0.10;;;;;;;5.43;100.00;95418.91;10462879;28;20032;-77
2024/02/20 21:51:22;;;;;;;3.35;0.20;;;;;;;5.47;100.00;95420.09;10467008;28;20050;-78
2024/02/20 21:56:22;;;;;;;0.00;0.00;;;;;;;5.51;100.00;95423.09;10448546;28;20029;-77
2024/02/20 22:01:23;;;;;;;1.10;0.00;;;;;;;5.55;100.00;95434.16;10447930;28;20326;-77
2024/02/20 22:06:23;;;;;;;0.00;0.00;;;;;;;5.46;100.00;95426.44;10448001;28;20028;-77
2024/02/20 22:11:24;;;;;;;6.53;6.25;;;;;;;5.63;100.00;95429.31;10466319;28;20042;-79
2024/02/20 22:16:24;;;;;;;2.70;2.60;;;;;;;5.65;100.00;95432.59;10466008;28;20528;-78
2024/02/20 22:21:24;;;;;;;3.20;0.10;;;;;;;5.68;100.00;95427.81;10452080;28;20383;-78
2024/02/20 22:26:25;;;;;;;0.00;0.00;;;;;;;5.45;100.00;95432.00;10463777;28;20805;-77
2024/02/20 22:31:25;;;;;;;3.10;0.87;;;;;;;5.60;100.00;95426.28;10466015;28;20425;-79
2024/02/20 22:36:26;;;;;;;26.70;11.97;;;;;;;5.72;100.00;95434.34;10468006;28;20279;-77
2024/02/20 22:41:30;;;;;;;62.25;24.45;;;;;;;5.72;100.00;95426.34;10448106;28;20651;-78
2024/02/20 22:46:30;;;;;;;149.32;33.03;;;;;;;5.77;100.00;95432.63;10447813;28;20055;-76
2024/02/20 22:51:31;;;;;;;39.53;10.48;;;;;;;5.75;100.00;95424.03;10462537;28;20047;-76
2024/02/20 22:56:31;;;;;;;0.00;0.00;;;;;;;5.70;100.00;95428.44;10462343;28;20749;-76
2024/02/20 23:01:33;;;;;;;0.00;0.00;;;;;;;5.78;100.00;95430.78;10461714;28;20493;-76
2024/02/20 23:06:33;;;;;;;1.02;0.00;;;;;;;5.67;100.00;95431.56;10462405;28;20077;-77
2024/02/20 23:11:34;;;;;;;0.00;0.00;;;;;;;5.54;100.00;95429.84;10461681;28;20025;-77
2024/02/20 23:16:34;;;;;;;2.43;2.10;;;;;;;5.58;100.00;95434.53;10461387;28;20028;-76